createdAt,value
2022-10-09T13:19:32.027Z,66.98
2022-10-09T13:22:07.995Z,67.17
2022-10-09T13:24:36.462Z,66.38
2022-10-09T13:27:05.578Z,65.60
2022-10-09T13:29:34.172Z,66.09
2022-10-09T13:32:03.567Z,65.94
2022-10-09T13:34:32.065Z,65.66
2022-10-09T13:37:00.607Z,65.38
2022-10-09T13:39:30.218Z,65.57
2022-10-09T13:41:59.885Z,66.16
2022-10-09T13:44:29.323Z,66.35
2022-10-09T13:46:57.853Z,66.48
2022-10-09T13:49:29.286Z,66.94
2022-10-09T13:51:57.869Z,66.78
2022-10-09T13:54:26.650Z,67.27
2022-10-09T13:56:55.615Z,67.35
2022-10-09T13:59:24.831Z,66.98
2022-10-09T14:01:54.582Z,67.31
2022-10-09T14:04:23.599Z,67.32
2022-10-09T14:06:53.576Z,67.31
2022-10-09T14:09:23.312Z,67.92
2022-10-09T14:11:51.994Z,68.08
2022-10-09T14:14:23.100Z,67.74
2022-10-09T14:16:51.925Z,67.81
2022-10-09T14:19:24.920Z,68.00
2022-10-09T14:21:58.582Z,68.07
2022-10-09T14:24:33.279Z,68.42
2022-10-09T14:27:08.604Z,68.57
2022-10-09T14:29:40.299Z,69.12
2022-10-09T14:32:08.962Z,69.12
2022-10-09T14:34:39.472Z,69.58
2022-10-09T14:37:29.672Z,69.99
2022-10-09T14:40:02.526Z,70.90
2022-10-09T14:42:31.173Z,71.05
2022-10-09T14:45:02.487Z,71.26
2022-10-09T14:47:31.169Z,71.26
2022-10-09T14:50:01.441Z,71.21
2022-10-09T14:52:30.812Z,71.54
2022-10-09T14:54:59.450Z,71.85
2022-10-09T14:57:35.844Z,71.72
2022-10-09T15:00:08.872Z,71.69
2022-10-09T15:02:38.437Z,71.73
2022-10-09T15:05:07.490Z,71.80
2022-10-09T15:07:36.369Z,72.23
2022-10-09T15:10:05.691Z,71.94
2022-10-09T15:12:43.226Z,72.17
2022-10-09T15:15:11.735Z,72.71
2022-10-09T15:17:40.790Z,73.80
2022-10-09T15:20:09.853Z,74.12
2022-10-09T15:22:38.799Z,74.26
2022-10-09T15:25:08.498Z,74.61
2022-10-09T15:27:36.983Z,75.06
2022-10-09T15:30:12.178Z,75.30
2022-10-09T15:32:44.706Z,75.28
2022-10-09T15:35:19.161Z,75.31
2022-10-09T15:37:55.767Z,75.67
2022-10-09T15:40:25.124Z,76.14
2022-10-09T15:42:54.049Z,76.39
2022-10-09T15:45:22.889Z,77.44
2022-10-09T15:48:00.183Z,77.79
2022-10-09T15:50:28.804Z,78.00
2022-10-09T15:53:11.838Z,78.60
2022-10-09T15:55:53.051Z,79.58
2022-10-09T15:58:21.812Z,79.49
2022-10-09T16:00:51.528Z,80.71
2022-10-09T16:03:21.310Z,80.87
2022-10-09T16:05:52.980Z,80.87
2022-10-09T16:08:31.615Z,82.32
2022-10-09T16:11:12.571Z,82.24
2022-10-09T16:13:48.226Z,81.02
2022-10-09T16:16:28.630Z,80.90
2022-10-09T16:18:58.481Z,81.40
2022-10-09T16:21:29.920Z,81.41
2022-10-09T16:24:02.215Z,81.40
2022-10-09T16:26:32.659Z,80.31
2022-10-09T16:29:02.288Z,79.95
2022-10-09T16:31:36.639Z,79.87
2022-10-09T16:34:08.156Z,79.73
2022-10-09T16:36:36.972Z,79.39
2022-10-09T16:39:06.526Z,79.08
2022-10-09T16:41:41.863Z,78.88
2022-10-09T16:44:15.471Z,78.73
2022-10-09T16:46:44.499Z,78.73
2022-10-09T16:49:21.360Z,78.32
2022-10-09T16:51:58.767Z,78.06
2022-10-09T16:54:32.606Z,77.55
2022-10-09T16:57:04.886Z,77.17
2022-10-09T16:59:47.371Z,76.94
2022-10-09T17:02:16.754Z,76.54
2022-10-09T17:04:46.529Z,76.20
2022-10-09T17:07:15.436Z,76.12
2022-10-09T17:09:45.674Z,76.07
2022-10-09T17:12:24.779Z,75.91
2022-10-09T17:15:02.165Z,75.94
2022-10-09T17:17:39.601Z,75.73
2022-10-09T17:20:09.300Z,75.56
2022-10-09T17:22:38.674Z,75.56
2022-10-09T17:25:16.451Z,75.71
2022-10-09T17:28:14.337Z,75.44
2022-10-09T17:30:50.921Z,75.40
2022-10-09T17:33:21.680Z,75.14
2022-10-09T17:36:25.404Z,75.09
2022-10-09T17:39:34.265Z,75.52
2022-10-09T17:42:28.077Z,75.41
2022-10-09T17:45:07.811Z,74.87
2022-10-09T17:47:42.309Z,74.49
2022-10-09T17:50:15.679Z,74.40
2022-10-09T17:52:49.595Z,74.72
2022-10-09T17:55:23.556Z,74.46
2022-10-09T17:57:55.041Z,74.32
2022-10-09T18:00:30.129Z,74.22
2022-10-09T18:02:58.851Z,73.53
2022-10-09T18:05:27.419Z,73.44
2022-10-09T18:07:56.864Z,73.53
2022-10-09T18:10:26.837Z,73.54
2022-10-09T18:12:58.479Z,73.30
2022-10-09T18:15:27.063Z,73.06
2022-10-09T18:17:58.888Z,73.00
2022-10-09T18:20:35.379Z,72.74
2022-10-09T18:23:22.701Z,73.01
2022-10-09T18:25:52.130Z,73.07
2022-10-09T18:28:21.075Z,72.87
2022-10-09T18:31:06.095Z,72.73
2022-10-09T18:33:39.793Z,72.72
2022-10-09T18:36:32.056Z,72.97
2022-10-09T18:39:10.021Z,73.28
2022-10-09T18:41:38.719Z,73.11
2022-10-09T18:44:15.494Z,72.93
2022-10-09T18:46:59.802Z,72.92
2022-10-09T18:49:34.932Z,73.14
2022-10-09T18:52:04.230Z,73.26
2022-10-09T18:54:33.158Z,73.57
2022-10-09T18:57:08.897Z,73.55
2022-10-09T18:59:39.017Z,73.34
2022-10-09T19:02:08.084Z,73.27
2022-10-09T19:04:37.875Z,73.33
2022-10-09T19:07:08.178Z,73.47
2022-10-09T19:09:41.481Z,73.26
2022-10-09T19:12:10.835Z,73.57
2022-10-09T19:14:39.516Z,73.67
2022-10-09T19:17:08.371Z,73.63
2022-10-09T19:19:40.744Z,73.59
2022-10-09T19:22:14.103Z,73.39
2022-10-09T19:24:49.549Z,73.77
2022-10-09T19:27:18.369Z,74.15
2022-10-09T19:29:46.990Z,74.23
2022-10-09T19:32:20.283Z,74.28
2022-10-09T19:34:50.257Z,74.16
2022-10-09T19:37:18.926Z,74.52
2022-10-09T19:39:50.083Z,75.18
2022-10-09T19:42:19.298Z,75.46
2022-10-09T19:44:47.982Z,75.66
2022-10-09T19:47:19.190Z,75.58
2022-10-09T19:49:52.066Z,75.27
2022-10-09T19:52:21.051Z,75.44
2022-10-09T19:54:49.683Z,75.81
2022-10-09T19:57:18.062Z,75.84
2022-10-09T19:59:48.110Z,75.93
2022-10-09T20:02:16.566Z,75.63
2022-10-09T20:04:48.706Z,75.96
2022-10-09T20:07:17.841Z,76.09
2022-10-09T20:09:46.317Z,76.49
2022-10-09T20:12:14.940Z,76.43
2022-10-09T20:14:43.584Z,76.02
2022-10-09T20:17:12.427Z,75.98
2022-10-09T20:19:44.867Z,75.88
2022-10-09T20:22:14.222Z,76.36
2022-10-09T20:24:42.820Z,76.41
2022-10-09T20:27:11.413Z,76.13
2022-10-09T20:29:39.955Z,76.20
2022-10-09T20:32:08.829Z,76.00
2022-10-09T20:34:37.338Z,76.27
2022-10-09T20:37:05.766Z,76.72
2022-10-09T20:39:34.378Z,76.49
2022-10-09T20:42:03.020Z,76.22
2022-10-09T20:44:31.505Z,76.13
2022-10-09T20:47:00.137Z,76.38
2022-10-09T20:49:29.934Z,76.42
2022-10-09T20:51:58.446Z,76.62
2022-10-09T20:54:27.314Z,76.21
2022-10-09T20:56:55.964Z,75.91
2022-10-09T20:59:24.525Z,76.00
2022-10-09T21:01:53.180Z,76.38
2022-10-09T21:04:21.646Z,76.92
2022-10-09T21:06:50.147Z,77.72
2022-10-09T21:09:18.625Z,78.08
2022-10-09T21:11:47.159Z,78.13
2022-10-09T21:14:15.585Z,77.75
2022-10-09T21:16:44.154Z,78.39
2022-10-09T21:19:12.639Z,78.66
2022-10-09T21:21:41.191Z,78.97
2022-10-09T21:24:09.777Z,79.09
2022-10-09T21:26:39.490Z,78.94
2022-10-09T21:29:07.954Z,78.82
2022-10-09T21:31:36.639Z,78.81
2022-10-09T21:34:05.261Z,78.53
2022-10-09T21:39:46.186Z,78.73
2022-10-09T21:42:14.849Z,78.86
2022-10-09T21:44:43.384Z,79.46
2022-10-09T21:47:21.223Z,79.84
2022-10-09T21:49:49.717Z,79.33
2022-10-09T21:52:18.873Z,79.17
2022-10-09T21:54:47.343Z,79.17
2022-10-09T21:57:15.885Z,78.51
2022-10-09T21:59:44.390Z,78.73
2022-10-09T22:02:12.909Z,78.55
2022-10-09T22:04:41.283Z,78.46
2022-10-09T22:07:09.788Z,78.60
2022-10-09T22:09:38.252Z,78.25
2022-10-09T22:12:06.684Z,77.95
2022-10-09T22:14:35.147Z,77.53
2022-10-09T22:17:03.577Z,78.01
2022-10-09T22:19:32.337Z,77.90
2022-10-09T22:22:00.784Z,77.90
2022-10-09T22:24:30.807Z,78.04
2022-10-09T22:26:59.648Z,78.09
2022-10-09T22:29:28.043Z,77.33
2022-10-09T22:31:56.576Z,77.39
2022-10-09T22:34:25.071Z,77.12
2022-10-09T22:36:53.472Z,77.08
2022-10-09T22:39:21.996Z,77.29
2022-10-09T22:41:50.456Z,77.26
2022-10-09T22:44:18.964Z,77.27
2022-10-09T22:46:50.102Z,76.99
2022-10-09T22:49:18.865Z,76.65
2022-10-09T22:51:47.334Z,76.31
2022-10-09T22:54:15.803Z,76.20
2022-10-09T22:56:46.047Z,76.44
2022-10-09T22:59:18.238Z,76.67
2022-10-09T23:01:57.578Z,76.82
2022-10-09T23:04:26.404Z,76.62
2022-10-09T23:06:59.879Z,76.34
2022-10-09T23:09:32.429Z,76.06
2022-10-09T23:12:00.844Z,75.80
2022-10-09T23:14:29.490Z,75.80
2022-10-09T23:16:58.008Z,75.56
2022-10-09T23:19:26.579Z,75.82
2022-10-09T23:21:55.156Z,75.79
2022-10-09T23:24:23.664Z,75.58
2022-10-09T23:26:52.424Z,75.23
2022-10-09T23:29:21.500Z,75.39
2022-10-09T23:31:53.461Z,75.85
2022-10-09T23:34:22.062Z,76.30
2022-10-09T23:36:50.708Z,76.13
2022-10-09T23:39:19.340Z,76.23
2022-10-09T23:41:47.703Z,75.96
2022-10-09T23:44:21.246Z,75.97
2022-10-09T23:46:50.655Z,75.88
2022-10-09T23:49:19.257Z,76.30
2022-10-09T23:51:47.977Z,76.58
2022-10-09T23:54:16.504Z,76.34
2022-10-09T23:56:45.077Z,76.24
2022-10-09T23:59:13.692Z,75.93
